Austin, TX (78765)

4:03 AM CDT on July 05, 2015 (GMT -0500)
Hyde Park | | Change Station
CLOSE
Current Station
Personal Weather Station
Location: Austin, TX
Elevation: 617 ft
Nearby Weather Stations

Elev 617 ft 30.30 °N, 97.73 °W | Updated 10 minutes ago

Partly Cloudy
Partly Cloudy
77.3 °F
Feels Like 79 °F
N
1.0
Wind Variable Wind from East
Gusts 4.0 mph

Today
High -- | Low -- °F
--% Chance of Precip.
Yesterday
High -- | Low -- °F
Precip. -- in
6:34 AM 8:36 PM
Waning Gibbous, 86% visible
Pressure 29.98 in
Visibility 10.0 miles
Clouds Few 1100 ft
Heat Index 79 °F
Dew Point 75 °F
Humidity 91%
Rainfall 0.00 in
Snow Depth Not available.
UV 0 out of 12
Pollen 2.40 out of 12
Air Quality Not available.
Flu Activity Not available.
METAR KATT 050851Z AUTO VRB04KT 10SM FEW011 25/23 A3002 RMK AO2 SLP150 T02500233 55000 $

More Conditions Fewer Conditions

Pressure 29.98 in
Visibility 10.0 miles
Clouds Few 1100 ft
Heat Index 79 °F
Dew Point 75 °F
Humidity 91%
Rainfall 0.00 in
Snow Depth Not available.
UV 0 out of 12
Pollen 2.40 out of 12
Air Quality Not available.
Flu Activity Not available.
METAR KATT 050851Z AUTO VRB04KT 10SM FEW011 25/23 A3002 RMK AO2 SLP150 T02500233 55000 $

More Conditions Fewer Conditions

10-Day Weather Forecast

×

Almanac

Astronomy

Jul. 05, 2015 Rise Set
Actual Time
Civil Twilight
Nautical Twilight
Astronomical Twilight
Moon
Length of Visible Light
Length of Day
Tomorrow will be .
, % of the Moon is Illuminated

Today's Extremes

State Highs State Lows

Community

WunderPhotos

Upload Photos

1,835,218 photos uploaded!

WunderBlogs® & News

Nearby

Air Quality

  Air Quality AQ Index Pollutant
Not available.

Snow Depth

Station Depth Elevation

Earthquake Activity

City Distance Mag. Time & Date
Minimum magnitude displayed is 2.5.

Coastal Water Temperatures

Place Temperature

Stations

Nearby Weather Stations

Station Location Temp. Windchill Dew Point Humidity Wind Precip. Elev Updated Type